createdAt,value
2022-08-17T00:02:25.488Z,71.35
2022-08-17T00:04:53.297Z,71.86
2022-08-17T00:07:19.873Z,71.90
2022-08-17T00:09:46.780Z,72.02
2022-08-17T00:12:43.209Z,72.45
2022-08-17T00:14:59.862Z,72.34
2022-08-17T00:17:26.416Z,72.53
2022-08-17T00:19:52.989Z,72.58
2022-08-17T00:22:32.676Z,72.65
2022-08-17T00:25:07.086Z,72.85
2022-08-17T00:27:33.800Z,72.52
2022-08-17T00:30:00.380Z,72.38
2022-08-17T00:33:15.711Z,72.50
2022-08-17T00:35:19.356Z,72.46
2022-08-17T00:37:45.902Z,72.69
2022-08-17T00:40:14.694Z,72.83
2022-08-17T00:42:42.481Z,72.69
2022-08-17T00:45:11.444Z,73.08
2022-08-17T00:47:38.153Z,73.45
2022-08-17T00:50:08.134Z,73.90
2022-08-17T00:52:39.381Z,73.82
2022-08-17T00:55:07.226Z,73.61
2022-08-17T00:57:38.873Z,73.62
2022-08-17T01:00:16.416Z,73.55
2022-08-17T01:02:46.033Z,73.41
2022-08-17T01:05:16.643Z,73.02
2022-08-17T01:07:47.572Z,73.29
2022-08-17T01:10:59.823Z,73.36
2022-08-17T01:13:02.877Z,72.94
2022-08-17T01:15:36.577Z,73.00
2022-08-17T01:18:05.716Z,72.99
2022-08-17T01:20:48.234Z,72.90
2022-08-17T01:23:18.551Z,73.07
2022-08-17T01:25:51.398Z,73.25
2022-08-17T01:28:33.243Z,72.88
2022-08-17T01:31:07.171Z,72.59
2022-08-17T01:33:34.152Z,72.95
2022-08-17T01:36:00.713Z,73.14
2022-08-17T01:38:31.581Z,72.34
2022-08-17T01:41:09.433Z,72.13
2022-08-17T01:43:47.123Z,72.02
2022-08-17T01:46:21.820Z,71.76
2022-08-17T01:48:48.437Z,71.69
2022-08-17T01:51:16.073Z,72.01
2022-08-17T01:53:47.265Z,72.07
2022-08-17T01:56:18.149Z,72.46
2022-08-17T01:58:45.710Z,72.84
2022-08-17T02:01:14.803Z,73.31
2022-08-17T02:03:42.082Z,72.95
2022-08-17T02:06:27.792Z,73.06
2022-08-17T02:09:01.922Z,73.66
2022-08-17T02:11:31.522Z,73.58
2022-08-17T02:14:02.911Z,74.18
2022-08-17T02:16:36.702Z,73.88
2022-08-17T02:19:10.369Z,73.83
2022-08-17T02:21:38.648Z,73.47
2022-08-17T02:24:08.346Z,73.14
2022-08-17T02:26:36.162Z,73.10
2022-08-17T02:29:04.127Z,72.80
2022-08-17T02:31:31.118Z,72.68
2022-08-17T02:34:04.702Z,72.78
2022-08-17T02:36:34.093Z,72.69
2022-08-17T02:39:09.664Z,72.85
2022-08-17T02:41:36.720Z,72.32
2022-08-17T02:44:03.869Z,72.48
2022-08-17T02:46:31.214Z,72.84
2022-08-17T02:48:58.241Z,73.42
2022-08-17T02:51:25.804Z,73.16
2022-08-17T02:53:52.530Z,73.77
2022-08-17T02:56:38.902Z,73.75
2022-08-17T02:59:05.456Z,74.21
2022-08-17T03:01:31.918Z,74.07
2022-08-17T03:03:58.899Z,74.04
2022-08-17T03:06:25.538Z,73.99
2022-08-17T03:08:53.128Z,73.69
2022-08-17T03:11:19.806Z,73.77
2022-08-17T03:13:46.374Z,74.02
2022-08-17T03:16:12.999Z,73.92
2022-08-17T03:18:39.436Z,74.53
2022-08-17T03:21:06.920Z,74.75
2022-08-17T03:23:33.841Z,74.68
2022-08-17T03:26:00.981Z,74.70
2022-08-17T03:28:28.389Z,74.06
2022-08-17T03:30:54.838Z,73.70
2022-08-17T03:33:22.096Z,73.46
2022-08-17T03:35:48.738Z,73.31
2022-08-17T03:38:17.393Z,73.32
2022-08-17T03:40:57.675Z,73.06
2022-08-17T03:43:29.557Z,72.72
2022-08-17T03:46:28.100Z,72.65
2022-08-17T03:49:19.592Z,72.00
2022-08-17T03:52:04.925Z,72.01
2022-08-17T03:54:50.373Z,72.45
2022-08-17T03:57:17.315Z,72.54
2022-08-17T03:59:45.160Z,72.31
2022-08-17T04:02:17.449Z,72.25
2022-08-17T04:04:44.053Z,72.20
2022-08-17T04:07:10.728Z,72.22
2022-08-17T04:09:37.217Z,72.08
2022-08-17T04:12:05.315Z,71.81
2022-08-17T04:14:39.206Z,71.76
2022-08-17T04:17:20.520Z,71.65
2022-08-17T04:19:47.136Z,72.12
2022-08-17T04:22:30.690Z,72.25
2022-08-17T04:25:08.904Z,72.06
2022-08-17T04:27:35.806Z,72.06
2022-08-17T04:30:02.720Z,72.02
2022-08-17T04:33:03.393Z,71.93
2022-08-17T04:35:21.248Z,71.65
2022-08-17T04:37:48.033Z,71.87
2022-08-17T04:40:33.034Z,71.86
2022-08-17T04:43:08.935Z,72.06
2022-08-17T04:45:54.891Z,72.50
2022-08-17T04:48:23.565Z,72.50
2022-08-17T04:51:10.439Z,72.84
2022-08-17T04:53:39.296Z,73.38
2022-08-17T04:56:05.999Z,73.62
2022-08-17T04:58:32.682Z,73.82
2022-08-17T05:00:59.628Z,74.38
2022-08-17T05:03:26.427Z,74.37
2022-08-17T05:05:53.825Z,74.68
2022-08-17T05:08:21.815Z,74.70
2022-08-17T05:10:49.326Z,74.81
2022-08-17T05:13:22.770Z,75.16
2022-08-17T05:15:52.702Z,75.22
2022-08-17T05:18:19.329Z,75.06
2022-08-17T05:20:45.796Z,75.00
2022-08-17T05:23:15.081Z,74.91
2022-08-17T05:25:47.603Z,74.83
2022-08-17T05:28:15.906Z,74.65
2022-08-17T05:30:43.484Z,74.82
2022-08-17T05:33:34.416Z,74.99
2022-08-17T05:36:02.442Z,74.98
2022-08-17T05:38:30.334Z,75.26
2022-08-17T05:40:58.508Z,75.31
2022-08-17T05:43:28.229Z,75.08
2022-08-17T05:46:05.205Z,75.15
2022-08-17T05:48:44.571Z,75.14
2022-08-17T05:51:16.940Z,75.48
2022-08-17T05:53:56.223Z,76.05
2022-08-17T05:56:47.492Z,76.12
2022-08-17T05:59:51.744Z,75.96
2022-08-17T06:03:00.647Z,75.16
2022-08-17T06:05:54.146Z,75.22
2022-08-17T06:08:42.135Z,74.92
2022-08-17T06:11:22.795Z,74.52
2022-08-17T06:14:06.038Z,74.51
2022-08-17T06:16:40.062Z,74.77
2022-08-17T06:19:18.777Z,75.17
2022-08-17T06:21:50.078Z,75.46
2022-08-17T06:24:35.592Z,75.69
2022-08-17T06:27:12.004Z,74.91
2022-08-17T06:29:57.953Z,74.26
2022-08-17T06:32:25.103Z,74.55
2022-08-17T06:34:52.769Z,73.29
2022-08-17T06:37:34.710Z,70.11
2022-08-17T06:40:10.904Z,69.88
2022-08-17T06:43:07.799Z,71.34
2022-08-17T06:45:38.949Z,72.53
2022-08-17T06:48:25.782Z,72.98
2022-08-17T06:51:00.125Z,73.13
2022-08-17T06:53:38.862Z,72.86
2022-08-17T06:56:09.326Z,72.45
2022-08-17T06:58:37.352Z,73.11
2022-08-17T07:01:09.916Z,73.25
2022-08-17T07:03:59.297Z,72.91
2022-08-17T07:06:48.488Z,73.49
2022-08-17T07:09:21.639Z,73.66
2022-08-17T07:12:05.247Z,73.90
2022-08-17T07:14:39.391Z,74.19
2022-08-17T07:17:18.354Z,74.08
2022-08-17T07:19:47.560Z,74.34
2022-08-17T07:22:59.698Z,74.74
2022-08-17T07:25:28.672Z,74.30
2022-08-17T07:28:00.397Z,74.32
2022-08-17T07:30:31.641Z,74.52
2022-08-17T07:33:22.764Z,75.16
2022-08-17T07:35:50.250Z,74.72
2022-08-17T07:38:24.691Z,74.67
2022-08-17T07:41:01.242Z,75.30
2022-08-17T07:43:29.569Z,75.38
2022-08-17T07:46:14.804Z,75.67
2022-08-17T07:48:46.478Z,75.42
2022-08-17T07:51:48.176Z,75.30
2022-08-17T07:54:19.640Z,75.42
2022-08-17T07:56:50.593Z,75.32
2022-08-17T07:59:23.916Z,75.38
2022-08-17T08:01:57.596Z,75.33
2022-08-17T08:05:00.247Z,75.51
2022-08-17T08:07:20.770Z,75.26
2022-08-17T08:09:59.011Z,75.39
2022-08-17T08:12:34.002Z,75.00
2022-08-17T08:15:15.292Z,75.17
2022-08-17T08:17:47.701Z,75.16
2022-08-17T08:23:00.503Z,74.54
2022-08-17T08:25:57.300Z,72.94
2022-08-17T08:28:36.395Z,72.10
2022-08-17T08:31:27.718Z,71.16
2022-08-17T08:34:47.374Z,69.51
2022-08-17T08:37:20.634Z,67.80
2022-08-17T08:39:57.640Z,66.55
2022-08-17T08:42:52.765Z,66.57
2022-08-17T08:45:30.497Z,65.78
2022-08-17T08:48:53.640Z,65.67
2022-08-17T08:51:55.296Z,66.12
2022-08-17T08:54:34.997Z,64.97
2022-08-17T08:57:29.407Z,63.91
2022-08-17T09:00:21.724Z,64.43
2022-08-17T09:03:12.900Z,63.94
2022-08-17T09:05:57.398Z,64.35
2022-08-17T09:08:32.330Z,63.77
2022-08-17T09:11:22.509Z,64.06
2022-08-17T09:14:21.454Z,62.98
2022-08-17T09:17:08.030Z,62.96
2022-08-17T09:19:50.217Z,63.30
2022-08-17T09:22:31.496Z,63.82
2022-08-17T09:25:07.138Z,63.76
2022-08-17T09:27:48.171Z,64.07
2022-08-17T09:30:15.178Z,65.07
2022-08-17T09:32:45.668Z,65.55
2022-08-17T09:35:16.160Z,65.91
2022-08-17T09:38:10.296Z,68.00
2022-08-17T09:41:07.223Z,73.44
2022-08-17T09:43:40.980Z,76.79
2022-08-17T09:46:31.808Z,76.51
2022-08-17T09:49:33.293Z,78.50
2022-08-17T09:52:13.506Z,79.05
2022-08-17T09:54:41.320Z,78.68
2022-08-17T09:57:30.184Z,79.15
2022-08-17T10:00:18.930Z,79.58
2022-08-17T10:02:54.473Z,78.88
2022-08-17T10:05:27.318Z,79.65
2022-08-17T10:08:29.430Z,78.09
2022-08-17T10:11:07.157Z,77.50
2022-08-17T10:13:59.755Z,77.26
2022-08-17T10:16:42.325Z,77.03
2022-08-17T10:19:35.724Z,76.86
2022-08-17T10:22:35.064Z,75.28
2022-08-17T10:25:26.181Z,74.44
2022-08-17T10:28:06.629Z,75.39
2022-08-17T10:30:45.018Z,74.11
2022-08-17T10:33:26.387Z,74.08
2022-08-17T10:36:10.193Z,73.91
2022-08-17T10:38:46.418Z,72.74
2022-08-17T10:41:41.182Z,72.63
2022-08-17T10:44:38.331Z,72.82
2022-08-17T10:47:15.880Z,71.53
2022-08-17T10:49:49.538Z,71.08
2022-08-17T10:52:28.098Z,70.92
2022-08-17T10:54:58.528Z,70.97
2022-08-17T11:00:10.509Z,70.48
2022-08-17T11:02:50.069Z,70.59
2022-08-17T11:05:30.236Z,71.73
2022-08-17T11:08:38.609Z,71.34
2022-08-17T11:11:35.812Z,71.33
2022-08-17T11:14:13.812Z,71.23
2022-08-17T11:16:40.372Z,70.82
2022-08-17T11:19:15.047Z,70.01
2022-08-17T11:22:13.922Z,71.35
2022-08-17T11:24:47.726Z,72.36
2022-08-17T11:27:26.633Z,73.54
2022-08-17T11:30:04.027Z,73.91
2022-08-17T11:32:47.367Z,74.82
2022-08-17T11:35:20.954Z,75.97
2022-08-17T11:38:16.465Z,75.87
2022-08-17T11:41:18.807Z,76.61
2022-08-17T11:44:02.023Z,76.63
2022-08-17T11:47:12.706Z,76.85
2022-08-17T11:49:57.599Z,77.05
2022-08-17T11:52:46.939Z,77.35
2022-08-17T11:55:39.585Z,77.67
2022-08-17T11:58:27.578Z,77.44
2022-08-17T12:00:59.688Z,77.63
2022-08-17T12:03:32.287Z,77.68
2022-08-17T12:06:19.996Z,78.57
2022-08-17T12:09:22.443Z,78.52
2022-08-17T12:12:12.595Z,78.82
2022-08-17T12:17:40.914Z,78.82
2022-08-17T12:20:23.076Z,79.31
2022-08-17T12:23:07.610Z,79.48
2022-08-17T12:25:47.221Z,79.50
2022-08-17T12:28:23.062Z,79.69
2022-08-17T12:30:52.124Z,79.74
2022-08-17T12:33:25.273Z,79.59
2022-08-17T12:36:02.921Z,79.84
2022-08-17T12:38:34.453Z,80.03
2022-08-17T12:41:24.816Z,79.90
2022-08-17T12:44:04.704Z,79.76
2022-08-17T12:46:46.890Z,79.82
2022-08-17T12:49:16.090Z,79.77
2022-08-17T12:51:45.073Z,79.58
2022-08-17T12:54:26.091Z,79.51
2022-08-17T12:56:52.942Z,79.27
2022-08-17T12:59:30.100Z,79.68
2022-08-17T13:01:57.382Z,79.65
2022-08-17T13:04:24.154Z,79.95
2022-08-17T13:06:59.607Z,80.08
2022-08-17T13:09:35.680Z,80.57
2022-08-17T13:12:07.511Z,80.44
2022-08-17T13:14:35.118Z,80.56
2022-08-17T13:17:06.331Z,80.73
2022-08-17T13:19:41.378Z,80.47
2022-08-17T13:22:12.408Z,80.54
2022-08-17T13:24:53.077Z,80.46
2022-08-17T13:27:22.334Z,80.79
2022-08-17T13:29:55.753Z,83.07
2022-08-17T13:32:37.477Z,83.88
2022-08-17T13:35:28.441Z,87.50
2022-08-17T13:38:39.526Z,88.26
2022-08-17T13:41:07.549Z,89.01
2022-08-17T13:43:46.047Z,89.05
2022-08-17T13:46:20.108Z,89.43
2022-08-17T13:48:56.990Z,89.64
2022-08-17T13:51:42.635Z,89.84
2022-08-17T13:54:21.251Z,90.07
2022-08-17T13:57:06.721Z,89.93
2022-08-17T13:59:53.204Z,90.38
2022-08-17T14:02:21.920Z,90.46
2022-08-17T14:04:48.798Z,90.74
2022-08-17T14:07:15.982Z,90.82
2022-08-17T14:09:53.241Z,90.39
2022-08-17T14:12:25.175Z,90.60
2022-08-17T14:14:53.274Z,90.62
2022-08-17T14:17:20.231Z,90.12
2022-08-17T14:19:46.703Z,90.32
2022-08-17T14:22:23.617Z,90.07
2022-08-17T14:24:51.447Z,90.08
2022-08-17T14:27:19.275Z,90.01
2022-08-17T14:29:46.461Z,90.21
2022-08-17T14:32:23.131Z,89.85
2022-08-17T14:34:49.900Z,90.37
2022-08-17T14:37:17.690Z,89.75
2022-08-17T14:39:44.426Z,89.55
2022-08-17T14:42:11.410Z,89.63
2022-08-17T14:44:39.236Z,89.34
2022-08-17T14:47:07.254Z,89.14
2022-08-17T14:49:33.812Z,88.95
2022-08-17T14:52:00.781Z,88.50
2022-08-17T14:54:33.610Z,88.83
2022-08-17T14:57:23.075Z,88.70
2022-08-17T14:59:49.209Z,88.40
2022-08-17T15:02:29.320Z,88.39
2022-08-17T15:05:03.463Z,88.38
2022-08-17T15:07:31.264Z,88.75
2022-08-17T15:10:00.938Z,88.18
2022-08-17T15:12:32.365Z,88.01
2022-08-17T15:15:00.773Z,88.01
2022-08-17T15:17:27.378Z,88.07
2022-08-17T15:20:15.243Z,88.07
2022-08-17T15:22:43.390Z,87.80
2022-08-17T15:25:11.449Z,87.48
2022-08-17T15:27:38.081Z,87.55
2022-08-17T15:30:05.964Z,87.33
2022-08-17T15:32:36.364Z,86.73
2022-08-17T15:35:05.198Z,86.86
2022-08-17T15:37:35.396Z,86.90
2022-08-17T15:40:02.106Z,86.89
2022-08-17T15:42:29.309Z,86.53
2022-08-17T15:44:56.261Z,86.36
2022-08-17T15:47:24.996Z,86.39
2022-08-17T15:49:55.473Z,85.85
2022-08-17T15:52:26.521Z,85.67
2022-08-17T15:54:56.717Z,85.63
2022-08-17T15:57:26.813Z,85.13
2022-08-17T15:59:58.926Z,84.35
2022-08-17T16:03:44.762Z,84.45
2022-08-17T16:05:21.962Z,85.18
2022-08-17T16:07:51.440Z,84.59
2022-08-17T16:10:19.237Z,84.29
2022-08-17T16:12:47.986Z,83.98
2022-08-17T16:15:15.414Z,83.31
2022-08-17T16:17:42.346Z,83.50
2022-08-17T16:20:20.048Z,83.41
2022-08-17T16:22:48.764Z,84.32
2022-08-17T16:25:21.418Z,83.43
2022-08-17T16:27:53.386Z,84.21
2022-08-17T16:30:22.223Z,84.08
2022-08-17T16:32:51.938Z,84.24
2022-08-17T16:35:22.133Z,84.68
2022-08-17T16:37:49.472Z,84.90
2022-08-17T16:40:17.061Z,84.90
2022-08-17T16:42:48.354Z,85.03
2022-08-17T16:45:20.791Z,84.65
2022-08-17T16:47:49.855Z,84.53
2022-08-17T16:50:19.102Z,84.56
2022-08-17T16:52:48.419Z,84.66
2022-08-17T16:55:18.233Z,84.71
2022-08-17T16:57:47.540Z,84.87
2022-08-17T17:00:17.261Z,84.68
2022-08-17T17:02:49.611Z,84.59
2022-08-17T17:05:25.963Z,84.52
2022-08-17T17:08:00.764Z,84.75
2022-08-17T17:10:48.332Z,85.00
2022-08-17T17:13:24.395Z,85.09
2022-08-17T17:16:11.465Z,85.08
2022-08-17T17:19:10.451Z,84.98
2022-08-17T17:22:15.577Z,84.91
2022-08-17T17:25:11.895Z,84.53
2022-08-17T17:28:00.792Z,84.35
2022-08-17T17:30:59.197Z,84.53
2022-08-17T17:33:40.417Z,84.27
2022-08-17T17:36:24.343Z,84.26
2022-08-17T17:38:54.648Z,84.94
2022-08-17T17:41:32.403Z,85.22
2022-08-17T17:44:10.939Z,85.41
2022-08-17T17:46:42.844Z,85.14
2022-08-17T17:49:14.310Z,85.47
2022-08-17T17:52:12.360Z,85.38
2022-08-17T17:55:00.539Z,84.95
2022-08-17T17:57:47.003Z,85.38
2022-08-17T18:00:37.815Z,85.15
2022-08-17T18:03:10.052Z,85.42
2022-08-17T18:05:53.087Z,85.44
2022-08-17T18:08:38.560Z,85.64
2022-08-17T18:11:24.252Z,85.54
2022-08-17T18:14:22.511Z,85.17
2022-08-17T18:16:56.188Z,85.22
2022-08-17T18:19:25.551Z,85.51
2022-08-17T18:22:04.037Z,85.80
2022-08-17T18:24:38.037Z,86.14
2022-08-17T18:27:19.238Z,86.09
2022-08-17T18:29:51.240Z,86.31
2022-08-17T18:32:26.317Z,86.33
2022-08-17T18:35:10.008Z,86.34
2022-08-17T18:37:39.560Z,86.15
2022-08-17T18:40:20.957Z,85.83
2022-08-17T18:42:59.451Z,85.91
2022-08-17T18:45:46.320Z,85.86
2022-08-17T18:48:24.505Z,89.45
2022-08-17T18:50:53.608Z,90.95
2022-08-17T18:53:36.093Z,92.01
2022-08-17T18:56:21.797Z,92.85
2022-08-17T18:58:54.208Z,93.69
2022-08-17T19:01:21.443Z,94.20
2022-08-17T19:04:25.814Z,94.57
2022-08-17T19:07:08.077Z,94.91
2022-08-17T19:09:39.532Z,95.22
2022-08-17T19:12:08.953Z,95.56
2022-08-17T19:14:35.899Z,95.78
2022-08-17T19:17:16.349Z,95.93
2022-08-17T19:20:10.243Z,96.18
2022-08-17T19:22:58.898Z,96.32
2022-08-17T19:25:30.658Z,96.58
2022-08-17T19:28:21.629Z,96.72
2022-08-17T19:30:51.075Z,96.81
2022-08-17T19:33:17.640Z,96.91
2022-08-17T19:36:05.761Z,96.94
2022-08-17T19:38:51.028Z,97.10
2022-08-17T19:41:29.974Z,97.13
2022-08-17T19:44:08.120Z,97.26
2022-08-17T19:46:56.187Z,97.23
2022-08-17T19:49:41.384Z,97.44
2022-08-17T19:52:39.159Z,97.38
2022-08-17T19:55:20.616Z,97.53
2022-08-17T19:58:07.782Z,97.61
2022-08-17T20:00:41.886Z,97.71
2022-08-17T20:03:16.550Z,97.53
2022-08-17T20:06:11.917Z,97.80
2022-08-17T20:08:48.889Z,97.71
2022-08-17T20:11:21.157Z,97.90
2022-08-17T20:14:13.218Z,98.00
2022-08-17T20:16:39.709Z,97.85
2022-08-17T20:19:17.933Z,97.69
2022-08-17T20:22:08.495Z,97.71
2022-08-17T20:24:47.892Z,97.70
2022-08-17T20:27:31.688Z,97.75
2022-08-17T20:30:03.715Z,97.73
2022-08-17T20:32:55.494Z,97.77
2022-08-17T20:35:23.902Z,97.70
2022-08-17T20:37:54.010Z,97.76
2022-08-17T20:40:25.827Z,97.74
2022-08-17T20:42:52.760Z,97.69
2022-08-17T20:45:23.397Z,97.74
2022-08-17T20:48:21.596Z,97.85
2022-08-17T20:50:57.388Z,97.83
2022-08-17T20:53:54.834Z,97.93
2022-08-17T20:56:43.447Z,98.03
2022-08-17T20:59:30.368Z,98.03
2022-08-17T21:02:08.953Z,98.04
2022-08-17T21:05:00.140Z,97.84
2022-08-17T21:07:42.621Z,98.07
2022-08-17T21:10:18.471Z,98.09
2022-08-17T21:12:51.604Z,98.09
2022-08-17T21:15:18.034Z,98.03
2022-08-17T21:17:59.460Z,98.15
2022-08-17T21:20:32.536Z,98.20
2022-08-17T21:23:02.144Z,98.23
2022-08-17T21:26:07.674Z,98.38
2022-08-17T21:29:00.230Z,98.31
2022-08-17T21:31:37.033Z,98.48
2022-08-17T21:34:15.821Z,98.70
2022-08-17T21:36:48.242Z,98.72
2022-08-17T21:39:42.544Z,98.66
2022-08-17T21:42:12.289Z,98.66
2022-08-17T21:44:47.814Z,98.63
2022-08-17T21:47:20.352Z,98.46
2022-08-17T21:49:47.436Z,98.33
2022-08-17T21:52:17.553Z,98.39
2022-08-17T21:54:53.587Z,98.21
2022-08-17T21:57:24.481Z,98.13
2022-08-17T21:59:58.105Z,98.18
2022-08-17T22:02:30.319Z,98.24
2022-08-17T22:05:04.906Z,98.16
2022-08-17T22:07:51.004Z,98.31
2022-08-17T22:10:39.459Z,98.41
2022-08-17T22:13:17.598Z,98.38
2022-08-17T22:16:15.742Z,98.41
2022-08-17T22:18:57.545Z,98.68
2022-08-17T22:21:24.618Z,98.49
2022-08-17T22:24:15.240Z,98.56
2022-08-17T22:27:00.150Z,98.65
2022-08-17T22:29:57.644Z,98.79
2022-08-17T22:32:37.477Z,98.61
2022-08-17T22:35:28.925Z,98.38
2022-08-17T22:38:20.188Z,98.39
2022-08-17T22:40:56.656Z,98.46
2022-08-17T22:43:26.304Z,98.53
2022-08-17T22:45:57.562Z,98.58
2022-08-17T22:48:28.298Z,98.63
2022-08-17T22:51:26.941Z,98.37
2022-08-17T22:54:17.399Z,98.51
2022-08-17T22:57:18.730Z,98.65
2022-08-17T22:59:45.397Z,98.91
2022-08-17T23:02:17.300Z,98.81
2022-08-17T23:04:49.193Z,98.67
2022-08-17T23:07:15.801Z,98.71
2022-08-17T23:09:42.658Z,98.51
2022-08-17T23:12:15.945Z,98.61
2022-08-17T23:14:45.737Z,98.91
2022-08-17T23:17:12.802Z,98.92
2022-08-17T23:19:39.351Z,98.80
2022-08-17T23:22:09.400Z,98.73
2022-08-17T23:24:43.576Z,98.69
2022-08-17T23:27:10.468Z,98.78
2022-08-17T23:29:39.513Z,98.74
2022-08-17T23:32:06.993Z,98.74
2022-08-17T23:34:33.509Z,98.82
2022-08-17T23:37:02.115Z,99.05
2022-08-17T23:39:28.628Z,98.79
2022-08-17T23:41:57.885Z,98.88
2022-08-17T23:44:25.112Z,99.15
2022-08-17T23:46:52.735Z,98.93
2022-08-17T23:49:19.893Z,99.10
2022-08-17T23:51:48.077Z,98.96
2022-08-17T23:54:41.583Z,98.91
2022-08-17T23:57:09.309Z,99.05
2022-08-17T23:59:37.228Z,99.10
